Portada
METAR-TAF:

METAR-TAF

Aeroports :

Hyderabad, Índia

latitud: 17-27N, longitud: 078-28E, altitud: 530 m

Observació

L'informe es va fer fa 16 minuts, a les 07:00 UTC
Vent 5 kt del Est
Temperatura 28°C
Humitat 55%
Pressió 1014 hPa
Visibilitat: 6000 m
Escasses núvols a una alçada de 2000 ft

METAR: VOHY 310700Z 08005KT 6000 FEW020 28/18 Q1014 NOSIG

Hora: 12:46 (07:16 UTC)

Pronòstic

L'informe es va fer fa 2 hores i 16 minuts, a les 05:00 UTC
Pronòstic vàlid del 31 a les 06 UTC al 31 a les 15 UTC
Vent 5 kt del Est
Visibilitat: 5000 m
Núvols disperses a una alçada de 1500 ft
Núvols disperses a una alçada de 10000 ft
calitja

TAF: VOHY 310500Z 3106/3115 08005KT 5000 HZ SCT015 SCT100

Observacions i pronòstics meteorològics de més de 4000 aeroports (METAR i TAF).

Les estacions disponibles són els punts grocs i vermells al mapa.

Posi el ratolí al punt desitjat per veure el nom de l'estació.

Feu clic per veure les observacions i els pronòstics meteorològics.

Per canviar el mapa: feu clic els botons verds amb una creu de color negre per apropar; al botó verd amb un guió per allunyar la imatge; o en les fletxes verdes per a mapes adjacents.


METAR-TAF: